Time;durP1;ratioP1;P1;durP2;ratioP2;P2;SDS_P1;SDS_P2;PMS_P1;PMS_P2;Temp;Humidity;BMP_temperature;BMP_pressure;BME280_temperature;BME280_humidity;BME280_pressure;Samples;Min_cycle;Max_cycle;Signal;HPM_P1;HPM_P2
2022/11/01 00:00:12;;;;;;;16.35;8.68;;;;;;;10.57;100.00;99482.81;5097127;28;20037;-96
2022/11/01 00:02:39;;;;;;;19.75;7.97;;;;;;;10.35;100.00;99466.31;5096691;28;20500;-96
2022/11/01 00:05:06;;;;;;;16.13;7.55;;;;;;;10.36;100.00;99473.38;5096863;28;20046;-95
2022/11/01 00:07:32;;;;;;;16.80;8.60;;;;;;;10.39;100.00;99468.03;5097091;28;20051;-95
2022/11/01 00:10:00;;;;;;;18.50;8.60;;;;;;;10.24;100.00;99477.06;5097016;28;20135;-94
2022/11/01 00:12:28;;;;;;;18.10;8.00;;;;;;;10.37;100.00;99477.81;5097009;28;20051;-94
2022/11/01 00:14:54;;;;;;;16.65;7.88;;;;;;;10.51;100.00;99499.72;5096779;28;20040;-94
2022/11/01 00:17:20;;;;;;;19.35;7.63;;;;;;;10.30;100.00;99473.44;5096785;28;20127;-94
2022/11/01 00:19:48;;;;;;;14.98;7.70;;;;;;;10.27;100.00;99475.22;5097329;28;20044;-95
2022/11/01 00:22:14;;;;;;;18.13;8.35;;;;;;;10.22;100.00;99470.88;5093685;28;20562;-95
2022/11/01 00:24:40;;;;;;;14.82;7.65;;;;;;;10.27;100.00;99475.22;5093962;28;20036;-95
2022/11/01 00:27:06;;;;;;;16.50;8.70;;;;;;;10.18;100.00;99469.16;5093395;28;20482;-94
2022/11/01 00:29:32;;;;;;;16.90;7.88;;;;;;;10.08;100.00;99464.00;5094104;28;20515;-95
2022/11/01 00:31:59;;;;;;;15.30;8.07;;;;;;;10.26;100.00;99491.22;5094860;28;20493;-94
2022/11/01 00:34:25;;;;;;;16.95;7.32;;;;;;;10.06;100.00;99467.53;5094688;28;20048;-93
2022/11/01 00:36:52;;;;;;;18.45;8.57;;;;;;;10.12;100.00;99466.59;5094359;28;20033;-93
2022/11/01 00:39:18;;;;;;;23.88;8.77;;;;;;;10.14;100.00;99464.78;5083161;28;20040;-95
2022/11/01 00:41:44;;;;;;;19.10;8.70;;;;;;;10.08;100.00;99466.66;5079762;28;20517;-93
2022/11/01 00:44:10;;;;;;;18.05;8.18;;;;;;;10.08;100.00;99473.72;5079029;28;20039;-94
2022/11/01 00:46:36;;;;;;;17.27;8.88;;;;;;;10.11;100.00;99478.13;5079115;28;20040;-94
2022/11/01 00:49:02;;;;;;;16.10;7.88;;;;;;;10.04;100.00;99472.91;5078688;28;20058;-92
2022/11/01 00:51:28;;;;;;;22.45;8.38;;;;;;;9.93;100.00;99455.34;5078722;28;20080;-93
2022/11/01 00:53:55;;;;;;;19.70;8.65;;;;;;;9.95;100.00;99466.81;5078468;28;20076;-93
2022/11/01 00:56:21;;;;;;;17.73;8.70;;;;;;;9.98;100.00;99485.41;5078686;28;20040;-93
2022/11/01 00:58:47;;;;;;;16.45;8.70;;;;;;;9.84;100.00;99466.97;5078661;28;20139;-93
2022/11/01 01:01:13;;;;;;;21.20;9.10;;;;;;;9.82;100.00;99474.06;5078191;28;20048;-94
2022/11/01 01:03:39;;;;;;;16.52;8.57;;;;;;;9.83;100.00;99479.38;5076899;28;20090;-94
2022/11/01 01:06:05;;;;;;;17.25;9.25;;;;;;;9.91;100.00;99484.59;5076487;28;20392;-94
2022/11/01 01:08:31;;;;;;;19.60;9.18;;;;;;;9.76;100.00;99460.84;5075859;28;20044;-93
2022/11/01 01:10:58;;;;;;;21.20;9.48;;;;;;;9.72;100.00;99467.13;5072380;28;20568;-93
2022/11/01 01:13:24;;;;;;;24.48;9.32;;;;;;;9.71;100.00;99478.63;5076114;28;20048;-93
2022/11/01 01:15:50;;;;;;;17.25;9.00;;;;;;;9.64;100.00;99470.75;5075343;28;20052;-94
2022/11/01 01:18:16;;;;;;;19.65;9.57;;;;;;;9.75;100.00;99478.59;5075699;28;20385;-92
2022/11/01 01:20:43;;;;;;;22.95;11.23;;;;;;;10.11;100.00;99473.69;5075725;28;20048;-93
2022/11/01 01:23:09;;;;;;;24.50;10.32;;;;;;;10.19;100.00;99471.81;5075445;28;20044;-94
2022/11/01 01:25:38;;;;;;;27.70;10.77;;;;;;;10.12;100.00;99474.56;5075879;28;20604;-93
2022/11/01 01:28:05;;;;;;;26.92;9.98;;;;;;;10.24;100.00;99477.94;5075765;28;20040;-94
2022/11/01 01:30:31;;;;;;;23.50;10.68;;;;;;;10.15;100.00;99475.41;5075874;28;20098;-94
2022/11/01 01:32:57;;;;;;;18.80;9.88;;;;;;;10.08;100.00;99474.63;5075362;28;20040;-94
2022/11/01 01:35:23;;;;;;;21.15;10.32;;;;;;;9.90;100.00;99469.53;5075162;28;20165;-94
2022/11/01 01:37:48;;;;;;;22.17;10.07;;;;;;;9.78;100.00;99449.34;5075823;28;20226;-93
2022/11/01 01:40:14;;;;;;;21.85;9.50;;;;;;;9.78;100.00;99451.09;5074916;28;20143;-92
2022/11/01 01:42:42;;;;;;;19.63;9.63;;;;;;;9.78;100.00;99453.75;5074528;28;20105;-93
2022/11/01 01:45:27;;;;;;;19.17;9.38;;;;;;;9.86;100.00;99475.78;5073301;28;20044;-92
2022/11/01 01:47:56;;;;;;;23.38;9.48;;;;;;;9.78;100.00;99475.00;5071660;28;20040;-93
2022/11/01 01:50:27;;;;;;;21.58;9.48;;;;;;;9.71;100.00;99468.03;5073397;28;20047;-94
2022/11/01 01:52:57;;;;;;;20.95;9.20;;;;;;;9.67;100.00;99472.47;5074589;28;20094;-93
2022/11/01 01:55:28;;;;;;;17.25;9.00;;;;;;;9.56;100.00;99467.28;5074823;28;20051;-92
2022/11/01 01:57:56;;;;;;;19.35;9.68;;;;;;;9.59;100.00;99456.66;5073787;28;20108;-92
2022/11/01 02:00:24;;;;;;;17.80;9.73;;;;;;;9.59;100.00;99463.75;5073733;28;20036;-92
2022/11/01 02:02:50;;;;;;;21.67;10.00;;;;;;;9.40;100.00;99449.81;5073675;28;20044;-91
2022/11/01 02:05:25;;;;;;;20.58;9.63;;;;;;;9.31;100.00;99439.28;5074187;28;20040;-91
2022/11/01 02:07:52;;;;;;;15.95;10.00;;;;;;;9.36;100.00;99454.25;5072672;28;20039;-92
2022/11/01 02:10:19;;;;;;;18.13;9.48;;;;;;;9.38;100.00;99460.44;5073434;28;20563;-92
2022/11/01 02:12:47;;;;;;;23.77;11.07;;;;;;;9.38;100.00;99460.44;5074239;28;20056;-95
2022/11/01 02:15:20;;;;;;;22.05;9.25;;;;;;;9.25;100.00;99442.88;5073221;28;21546;-93
2022/11/01 02:18:01;;;;;;;16.30;9.02;;;;;;;9.31;100.00;99471.16;5073875;28;20033;-93
2022/11/01 02:21:21;;;;;;;20.08;9.52;;;;;;;9.29;100.00;99462.31;5073997;28;20041;-91
2022/11/01 02:24:37;;;;;;;13.73;8.18;;;;;;;9.21;100.00;99449.13;5072453;28;20052;-92
2022/11/01 02:27:11;;;;;;;16.70;8.27;;;;;;;9.28;100.00;99471.16;5026235;28;20053;-94
2022/11/01 02:29:59;;;;;;;16.38;8.30;;;;;;;9.20;100.00;99464.16;5031753;28;20513;-93
2022/11/01 02:32:36;;;;;;;17.80;8.90;;;;;;;9.10;100.00;99462.50;5030803;28;20060;-94
2022/11/01 02:35:12;;;;;;;20.25;8.80;;;;;;;9.08;100.00;99460.75;5030810;28;20071;-92
2022/11/01 02:37:45;;;;;;;22.77;9.55;;;;;;;9.08;100.00;99463.41;5032002;28;20048;-93
2022/11/01 02:40:16;;;;;;;19.85;8.00;;;;;;;9.06;100.00;99479.34;5029505;28;20081;-94
2022/11/01 02:42:45;;;;;;;23.95;9.43;;;;;;;8.94;100.00;99467.06;5032060;28;20037;-93
2022/11/01 02:45:27;;;;;;;14.65;7.78;;;;;;;8.93;100.00;99483.88;5031287;28;20049;-93
2022/11/01 02:47:56;;;;;;;18.73;9.48;;;;;;;8.88;100.00;99474.22;5030034;28;20115;-92
2022/11/01 02:50:24;;;;;;;18.08;8.90;;;;;;;8.98;100.00;99487.38;5031391;28;20134;-92
2022/11/01 02:52:52;;;;;;;21.48;9.57;;;;;;;9.00;100.00;99484.69;5031991;28;20037;-93
2022/11/01 02:58:22;;;;;;;19.95;9.32;;;;;;;8.96;100.00;99478.56;5132609;27;20382;-92
2022/11/01 03:00:48;;;;;;;17.63;9.52;;;;;;;8.91;100.00;99471.53;5132023;27;20462;-94
2022/11/01 03:03:17;;;;;;;19.55;9.43;;;;;;;8.89;100.00;99474.22;5133707;27;20063;-94
2022/11/01 03:05:56;;;;;;;19.02;8.65;;;;;;;8.79;100.00;99460.13;5131200;28;20039;-92
2022/11/01 03:08:25;;;;;;;17.20;8.90;;;;;;;8.75;100.00;99454.88;5130042;28;20067;-90
2022/11/01 03:11:00;;;;;;;14.63;8.43;;;;;;;8.80;100.00;99466.31;5130295;27;20556;-94
2022/11/01 03:13:35;;;;;;;20.98;9.07;;;;;;;8.86;100.00;99471.56;5131211;28;20480;-92
2022/11/01 03:16:14;;;;;;;18.75;9.27;;;;;;;8.87;100.00;99472.44;5128996;27;20035;-95
2022/11/01 03:18:58;;;;;;;21.33;8.85;;;;;;;8.88;100.00;99472.44;5130319;28;20076;-94
2022/11/01 03:21:27;;;;;;;18.45;8.32;;;;;;;8.90;100.00;99480.38;5129253;28;20046;-93
2022/11/01 03:24:00;;;;;;;18.10;8.52;;;;;;;8.82;100.00;99476.00;5130432;27;20036;-94
2022/11/01 03:26:32;;;;;;;17.30;8.68;;;;;;;8.71;100.00;99458.44;5130726;27;20036;-94
2022/11/01 03:29:03;;;;;;;20.83;9.57;;;;;;;8.76;100.00;99480.47;5130333;27;20118;-93
2022/11/01 03:31:32;;;;;;;18.13;9.43;;;;;;;8.61;100.00;99470.91;5129696;27;20126;-93
2022/11/01 03:34:02;;;;;;;21.20;10.45;;;;;;;8.66;100.00;99468.22;5130640;27;20043;-92
2022/11/01 03:36:31;;;;;;;19.95;10.27;;;;;;;8.48;100.00;99455.97;5131568;27;20042;-93
2022/11/01 03:39:03;;;;;;;19.98;10.10;;;;;;;8.58;100.00;99465.63;5129727;28;20031;-93
2022/11/01 03:41:35;;;;;;;22.17;10.25;;;;;;;8.56;100.00;99473.56;5129270;28;20035;-91
2022/11/01 03:44:03;;;;;;;19.30;9.85;;;;;;;8.52;100.00;99469.22;5129699;28;20039;-94
2022/11/01 03:46:29;;;;;;;20.90;10.23;;;;;;;8.35;100.00;99445.44;5128709;28;20514;-94
2022/11/01 03:48:55;;;;;;;20.42;10.05;;;;;;;8.35;100.00;99458.69;5129700;28;20071;-92
2022/11/01 03:51:21;;;;;;;22.20;10.45;;;;;;;8.40;100.00;99466.59;5129349;28;20069;-93
2022/11/01 03:53:47;;;;;;;17.85;9.43;;;;;;;8.49;100.00;99477.16;5130040;27;20036;-94
2022/11/01 03:56:13;;;;;;;26.40;10.70;;;;;;;8.52;100.00;99482.47;5129371;28;20039;-93
2022/11/01 03:58:46;;;;;;;22.58;10.32;;;;;;;8.51;100.00;99482.47;5129343;27;20044;-92
2022/11/01 04:01:14;;;;;;;22.38;10.27;;;;;;;8.46;100.00;99481.59;5131808;27;20031;-93
2022/11/01 04:03:41;;;;;;;18.38;10.48;;;;;;;8.42;100.00;99478.13;5129807;28;20043;-93
2022/11/01 04:06:07;;;;;;;17.20;9.50;;;;;;;8.33;100.00;99483.44;5129684;28;20035;-92
2022/11/01 04:08:33;;;;;;;18.63;9.10;;;;;;;8.18;100.00;99464.09;5121955;27;20036;-92
2022/11/01 04:10:59;;;;;;;17.67;8.73;;;;;;;8.22;100.00;99480.88;5116857;27;20036;-92
2022/11/01 04:13:25;;;;;;;22.42;10.20;;;;;;;8.13;100.00;99480.91;5115548;28;20096;-92
2022/11/01 04:20:31;;;;;;;19.45;9.23;;;;;;;8.13;100.00;99489.75;5130295;27;20370;-93
2022/11/01 04:21:36;;;;;;;18.95;9.57;;;;;;;8.12;100.00;99495.03;5109857;28;20063;-92
2022/11/01 04:24:02;;;;;;;20.20;9.65;;;;;;;8.13;100.00;99483.53;5109939;28;20093;-93
2022/11/01 04:26:28;;;;;;;20.58;9.98;;;;;;;8.10;100.00;99480.94;5108852;28;20047;-93
2022/11/01 04:28:57;;;;;;;18.08;9.68;;;;;;;7.98;100.00;99456.28;5110569;28;20389;-94
2022/11/01 04:31:24;;;;;;;19.63;10.73;;;;;;;8.03;100.00;99470.34;5107087;28;20443;-93
2022/11/01 04:33:51;;;;;;;22.45;10.80;;;;;;;8.11;100.00;99496.81;5108649;28;20060;-95
2022/11/01 04:36:17;;;;;;;18.75;9.80;;;;;;;8.07;100.00;99504.75;5110201;28;20049;-93
2022/11/01 04:38:43;;;;;;;20.98;9.57;;;;;;;8.07;100.00;99502.13;5110431;28;20035;-94
2022/11/01 04:41:08;;;;;;;17.67;10.38;;;;;;;7.94;100.00;99478.38;5110064;28;20484;-94
2022/11/01 04:43:34;;;;;;;21.35;10.18;;;;;;;8.09;100.00;99497.69;5108041;28;20056;-93
2022/11/01 04:46:00;;;;;;;22.45;10.55;;;;;;;8.05;100.00;99499.50;5108695;28;20032;-93
2022/11/01 04:48:26;;;;;;;21.00;11.70;;;;;;;8.09;100.00;99497.69;5109579;28;20500;-92
2022/11/01 04:50:53;;;;;;;19.67;10.05;;;;;;;7.94;100.00;99478.38;5108881;28;20392;-92
2022/11/01 04:53:19;;;;;;;19.13;10.85;;;;;;;7.96;100.00;99486.31;5109795;28;20389;-93
2022/11/01 04:55:45;;;;;;;21.50;10.48;;;;;;;7.87;100.00;99487.25;5109196;28;20113;-92
2022/11/01 04:58:11;;;;;;;17.95;9.88;;;;;;;7.77;100.00;99475.78;5109339;28;20182;-94
2022/11/01 05:00:37;;;;;;;21.90;10.68;;;;;;;7.74;100.00;99489.06;5108370;28;20563;-94
2022/11/01 05:03:05;;;;;;;19.08;9.52;;;;;;;7.85;100.00;99510.19;5109317;28;20043;-94
2022/11/01 05:05:31;;;;;;;21.70;9.52;;;;;;;7.77;100.00;99501.41;5109706;28;20103;-93
2022/11/01 05:08:04;;;;;;;23.60;10.13;;;;;;;7.68;100.00;99496.16;5109714;28;20035;-93
2022/11/01 05:10:30;;;;;;;22.10;10.85;;;;;;;7.57;100.00;99489.13;5108651;28;20074;-94
2022/11/01 05:12:56;;;;;;;21.30;10.40;;;;;;;7.63;100.00;99485.53;5108285;28;20043;-92
2022/11/01 05:15:22;;;;;;;21.85;10.43;;;;;;;7.57;100.00;99485.59;5109124;28;20123;-92
2022/11/01 05:17:48;;;;;;;23.20;11.50;;;;;;;7.58;100.00;99490.84;5108185;28;20052;-94
2022/11/01 05:20:14;;;;;;;24.27;10.90;;;;;;;7.59;100.00;99500.56;5109239;28;20040;-93
2022/11/01 05:22:40;;;;;;;19.85;10.38;;;;;;;7.57;100.00;99507.63;5109311;28;20378;-94
2022/11/01 05:25:09;;;;;;;20.90;10.95;;;;;;;7.52;100.00;99504.09;5108106;28;20044;-93
2022/11/01 05:27:35;;;;;;;22.20;11.27;;;;;;;7.51;100.00;99485.59;5109268;28;20117;-93
2022/11/01 05:30:01;;;;;;;24.08;12.25;;;;;;;7.63;100.00;99505.84;5096593;28;20484;-93
2022/11/01 05:32:27;;;;;;;26.35;13.05;;;;;;;7.60;100.00;99494.38;5096498;28;20047;-94
2022/11/01 05:34:52;;;;;;;23.70;12.02;;;;;;;7.65;100.00;99504.94;5096295;28;20101;-94
2022/11/01 05:37:18;;;;;;;23.35;11.77;;;;;;;7.59;100.00;99497.94;5096572;28;20090;-94
2022/11/01 05:39:44;;;;;;;22.90;11.48;;;;;;;7.65;100.00;99506.72;5096085;28;20036;-94
2022/11/01 05:42:11;;;;;;;22.55;11.30;;;;;;;7.66;100.00;99512.03;5094147;28;20127;-93
2022/11/01 05:44:37;;;;;;;22.10;10.95;;;;;;;7.50;100.00;99495.28;5096166;28;20054;-93
2022/11/01 05:47:03;;;;;;;21.35;10.75;;;;;;;7.56;100.00;99519.09;5096184;28;20032;-93
2022/11/01 05:49:29;;;;;;;24.38;10.55;;;;;;;7.53;100.00;99518.25;5096104;28;20113;-93
2022/11/01 05:51:55;;;;;;;20.05;9.82;;;;;;;7.43;100.00;99506.78;5095846;28;20036;-93
2022/11/01 05:54:21;;;;;;;16.73;9.57;;;;;;;7.46;100.00;99529.72;5096409;28;20542;-93
2022/11/01 05:56:47;;;;;;;22.80;10.65;;;;;;;7.40;100.00;99527.97;5091969;28;20039;-93
2022/11/01 05:59:14;;;;;;;19.60;10.40;;;;;;;7.29;100.00;99514.75;5095675;28;20032;-93
2022/11/01 06:01:40;;;;;;;19.95;10.27;;;;;;;7.35;100.00;99535.03;5093646;28;20824;-94
2022/11/01 06:04:06;;;;;;;22.10;10.13;;;;;;;7.33;100.00;99534.13;5094262;28;20043;-92
2022/11/01 06:06:32;;;;;;;22.27;9.85;;;;;;;7.33;100.00;99542.06;5094760;28;20370;-93
2022/11/01 06:08:59;;;;;;;24.85;10.88;;;;;;;7.17;100.00;99522.72;5095680;28;20097;-92
2022/11/01 06:11:26;;;;;;;23.52;10.38;;;;;;;7.29;100.00;99543.88;5097182;28;20055;-92
2022/11/01 06:13:53;;;;;;;18.30;9.82;;;;;;;7.36;100.00;99542.97;5096668;28;20039;-92
2022/11/01 06:16:21;;;;;;;23.85;10.77;;;;;;;7.43;100.00;99543.84;5095955;28;20051;-93
2022/11/01 06:18:47;;;;;;;20.08;10.02;;;;;;;7.51;100.00;99552.63;5092336;28;20032;-92
2022/11/01 06:21:14;;;;;;;18.30;9.80;;;;;;;7.52;100.00;99549.09;5096240;28;20028;-93
2022/11/01 06:23:39;;;;;;;20.10;10.18;;;;;;;7.50;100.00;99539.41;5094691;28;20072;-92
2022/11/01 06:26:05;;;;;;;18.92;9.55;;;;;;;7.46;100.00;99537.66;5096906;28;20459;-92
2022/11/01 06:28:32;;;;;;;21.73;9.75;;;;;;;7.45;100.00;99531.47;5097599;28;20032;-94
2022/11/01 06:31:00;;;;;;;17.67;9.75;;;;;;;7.60;100.00;99557.03;5097857;28;20036;-92
2022/11/01 06:33:28;;;;;;;19.73;9.75;;;;;;;7.67;100.00;99558.78;5096033;28;20039;-92
2022/11/01 06:35:53;;;;;;;21.98;9.40;;;;;;;7.66;100.00;99557.03;5096052;28;20040;-93
2022/11/01 06:38:19;;;;;;;26.80;10.30;;;;;;;7.67;100.00;99549.97;5095676;28;20062;-93
2022/11/01 06:40:46;;;;;;;20.15;9.80;;;;;;;7.81;100.00;99572.00;5093387;28;20043;-94
2022/11/01 06:43:12;;;;;;;17.73;9.90;;;;;;;7.87;100.00;99565.78;5095905;28;20040;-91
2022/11/01 06:45:38;;;;;;;21.30;10.07;;;;;;;7.78;100.00;99554.31;5095113;28;20085;-92
2022/11/01 06:48:04;;;;;;;17.83;9.63;;;;;;;7.93;100.00;99566.63;5095856;28;20040;-93
2022/11/01 06:50:32;;;;;;;21.95;10.05;;;;;;;8.01;100.00;99570.13;5095425;28;20497;-92
2022/11/01 06:52:59;;;;;;;22.90;10.15;;;;;;;8.02;100.00;99569.28;5095618;28;20040;-93
2022/11/01 06:55:25;;;;;;;18.88;10.13;;;;;;;8.19;100.00;99573.59;5095200;28;20396;-93
2022/11/01 06:57:56;;;;;;;17.77;9.68;;;;;;;8.26;100.00;99580.63;5095681;28;20098;-93
2022/11/01 07:00:22;;;;;;;17.63;8.90;;;;;;;8.34;100.00;99586.78;5087318;28;20040;-93
2022/11/01 07:02:48;;;;;;;19.73;10.15;;;;;;;8.40;100.00;99586.78;5095544;28;20071;-93
2022/11/01 07:05:14;;;;;;;21.30;9.63;;;;;;;8.47;100.00;99578.78;5094973;28;20362;-93
2022/11/01 07:07:41;;;;;;;19.83;10.00;;;;;;;8.62;100.00;99594.63;5093409;28;20060;-94
2022/11/01 07:10:08;;;;;;;18.67;10.05;;;;;;;8.68;100.00;99578.66;5095218;28;20086;-94
2022/11/01 07:12:34;;;;;;;16.25;9.43;;;;;;;8.88;100.00;99596.22;5092224;28;20044;-95
2022/11/01 07:15:00;;;;;;;19.45;10.00;;;;;;;8.89;100.00;99593.56;5095074;28;20046;-92
2022/11/01 07:17:25;;;;;;;15.57;9.18;;;;;;;9.05;100.00;99608.47;5094649;28;20064;-93
2022/11/01 07:19:51;;;;;;;16.30;9.00;;;;;;;9.11;100.00;99593.38;5095134;28;20062;-93
2022/11/01 07:22:17;;;;;;;15.20;8.88;;;;;;;9.14;100.00;99598.69;5095401;28;20079;-93
2022/11/01 07:24:44;;;;;;;20.17;9.25;;;;;;;9.30;100.00;99610.03;5095062;28;20516;-93
2022/11/01 07:27:10;;;;;;;15.00;8.32;;;;;;;9.36;100.00;99613.53;5094802;28;20039;-94
2022/11/01 07:29:38;;;;;;;20.10;9.90;;;;;;;9.37;100.00;99596.72;5094821;28;20047;-94
2022/11/01 07:32:04;;;;;;;18.83;9.35;;;;;;;9.50;100.00;99594.84;5094212;28;20485;-93
2022/11/01 07:34:30;;;;;;;17.90;9.90;;;;;;;9.61;100.00;99602.69;5094491;28;20048;-93
2022/11/01 07:36:56;;;;;;;21.42;9.82;;;;;;;9.78;100.00;99602.50;5092641;28;20072;-94
2022/11/01 07:39:22;;;;;;;21.77;9.93;;;;;;;9.91;100.00;99612.13;5093383;28;20044;-93
2022/11/01 07:41:51;;;;;;;20.23;10.32;;;;;;;10.04;100.00;99608.44;5092468;28;20051;-94
2022/11/01 07:44:17;;;;;;;21.25;9.75;;;;;;;10.13;100.00;99615.41;5097454;28;20036;-92
2022/11/01 07:46:42;;;;;;;25.63;10.18;;;;;;;9.97;100.00;99604.06;5091398;28;20043;-93
2022/11/01 07:49:08;;;;;;;23.83;10.68;;;;;;;9.85;100.00;99596.25;5092087;28;20059;-93
2022/11/01 07:51:34;;;;;;;22.83;10.80;;;;;;;9.80;100.00;99601.63;5093716;28;20396;-92
2022/11/01 07:54:00;;;;;;;26.88;11.18;;;;;;;9.79;100.00;99599.84;5093170;28;20058;-93
2022/11/01 07:56:26;;;;;;;26.35;11.73;;;;;;;9.86;100.00;99603.31;5092263;28;20041;-92
2022/11/01 07:58:53;;;;;;;29.30;11.77;;;;;;;9.82;100.00;99586.53;5089596;28;20089;-92
2022/11/01 08:01:19;;;;;;;29.92;11.95;;;;;;;10.11;100.00;99609.22;5091583;28;20040;-93
2022/11/01 08:03:45;;;;;;;32.42;13.50;;;;;;;10.41;100.00;99609.75;5093136;28;20062;-92
2022/11/01 08:06:11;;;;;;;29.75;13.52;;;;;;;10.46;100.00;99594.66;5092997;28;20074;-93
2022/11/01 08:08:37;;;;;;;34.17;13.75;;;;;;;10.58;100.00;99585.63;5092770;28;20059;-93
2022/11/01 08:11:03;;;;;;;26.15;11.85;;;;;;;10.72;100.00;99588.97;5092213;28;20493;-93
2022/11/01 08:13:29;;;;;;;27.55;12.75;;;;;;;11.04;100.00;99606.25;5092969;28;20036;-94
2022/11/01 08:16:01;;;;;;;25.42;12.75;;;;;;;11.09;99.56;99586.63;5092865;28;20456;-93
2022/11/01 08:18:27;;;;;;;27.38;12.70;;;;;;;11.17;98.63;99573.19;5092936;28;20515;-93
2022/11/01 08:20:53;;;;;;;26.25;12.60;;;;;;;11.37;97.33;99585.28;5091368;28;20505;-93
2022/11/01 08:23:20;;;;;;;25.83;12.65;;;;;;;11.44;95.90;99584.28;5093261;28;20127;-94
2022/11/01 08:25:46;;;;;;;27.25;12.57;;;;;;;11.51;94.92;99580.59;5093158;28;20105;-93
2022/11/01 08:28:14;;;;;;;28.60;12.32;;;;;;;11.67;95.25;99586.53;5093334;28;20059;-93
2022/11/01 08:30:41;;;;;;;26.42;12.88;;;;;;;11.88;94.58;99602.16;5091605;28;20044;-95
2022/11/01 08:33:08;;;;;;;23.38;12.60;;;;;;;11.90;93.64;99599.44;5091586;28;20131;-93
2022/11/01 08:35:34;;;;;;;27.85;12.50;;;;;;;11.99;93.62;99604.63;5093707;28;20066;-95
2022/11/01 08:38:02;;;;;;;24.20;12.93;;;;;;;11.99;93.59;99585.06;5093393;28;20036;-93
2022/11/01 08:40:30;;;;;;;26.65;12.65;;;;;;;12.15;92.28;99596.31;5089391;28;20036;-92
2022/11/01 08:42:56;;;;;;;33.90;13.60;;;;;;;12.37;91.70;99615.41;5092046;28;20516;-94
2022/11/01 08:45:22;;;;;;;24.35;12.50;;;;;;;12.43;91.43;99605.50;5090928;28;20152;-93
2022/11/01 08:47:48;;;;;;;24.85;12.50;;;;;;;12.49;91.32;99608.03;5092170;28;20032;-94
2022/11/01 08:50:17;;;;;;;24.58;12.27;;;;;;;12.59;90.37;99607.81;5089401;28;20058;-93
2022/11/01 08:52:43;;;;;;;24.63;11.87;;;;;;;12.48;90.24;99581.38;5092768;28;20366;-95
2022/11/01 08:55:10;;;;;;;23.90;11.93;;;;;;;12.57;90.57;99597.19;5094735;28;20709;-94
2022/11/01 08:57:37;;;;;;;19.00;11.40;;;;;;;12.58;89.96;99572.25;5093984;28;20130;-93
2022/11/01 09:00:05;;;;;;;25.58;12.80;;;;;;;12.79;90.39;99600.22;5093612;28;20040;-93
2022/11/01 09:02:32;;;;;;;25.17;12.00;;;;;;;12.90;91.07;99602.66;5093256;28;20090;-94
2022/11/01 09:05:01;;;;;;;24.90;12.10;;;;;;;12.92;89.41;99595.50;5097584;28;20032;-94
2022/11/01 09:07:29;;;;;;;21.88;12.13;;;;;;;13.10;89.00;99599.53;5102919;28;20040;-95
2022/11/01 09:09:55;;;;;;;22.97;11.60;;;;;;;13.11;88.56;99587.94;5096104;28;20040;-92
2022/11/01 09:12:21;;;;;;;24.13;13.23;;;;;;;13.18;87.73;99577.97;5097853;28;20050;-94
2022/11/01 09:14:47;;;;;;;21.67;11.45;;;;;;;13.18;88.52;99569.97;5096634;28;20048;-93
2022/11/01 09:17:14;;;;;;;22.77;12.02;;;;;;;13.41;87.51;99593.47;5098355;28;20046;-94
2022/11/01 09:19:40;;;;;;;18.60;11.10;;;;;;;13.44;85.86;99580.03;5105178;28;20044;-93
2022/11/01 09:22:07;;;;;;;20.65;11.48;;;;;;;13.53;86.41;99574.44;5105529;28;20070;-96
2022/11/01 09:24:34;;;;;;;22.17;11.75;;;;;;;13.65;85.29;99581.25;5104224;28;20055;-94
2022/11/01 09:27:00;;;;;;;23.20;11.40;;;;;;;13.75;84.74;99577.44;5104481;28;20101;-95
2022/11/01 09:29:26;;;;;;;22.60;12.63;;;;;;;13.92;83.70;99584.97;5104769;28;20048;-94
2022/11/01 09:31:53;;;;;;;22.40;12.48;;;;;;;13.92;83.38;99571.59;5104583;28;20401;-94
2022/11/01 09:34:19;;;;;;;22.25;12.05;;;;;;;13.93;83.72;99573.38;5104552;28;20397;-95
2022/11/01 09:36:46;;;;;;;20.33;12.52;;;;;;;14.05;83.88;99577.47;5105392;28;20073;-94
2022/11/01 09:39:16;;;;;;;19.48;11.45;;;;;;;14.31;83.70;99596.34;5103556;28;20040;-93
2022/11/01 09:41:49;;;;;;;20.25;11.48;;;;;;;14.29;81.96;99574.13;5104633;28;20040;-95
2022/11/01 09:44:22;;;;;;;19.42;11.02;;;;;;;14.47;81.78;99585.19;5101767;28;20042;-95
2022/11/01 09:46:52;;;;;;;23.63;11.65;;;;;;;14.42;81.06;99571.06;5104410;28;20048;-95
2022/11/01 09:49:22;;;;;;;21.08;12.23;;;;;;;14.52;80.52;99578.78;5103865;28;20044;-95
2022/11/01 09:51:49;;;;;;;22.10;11.70;;;;;;;14.60;81.12;99583.06;5103569;28;20048;-94
2022/11/01 09:54:20;;;;;;;21.45;11.90;;;;;;;14.61;80.11;99560.72;5104593;28;20111;-94
2022/11/01 09:56:56;;;;;;;20.35;11.23;;;;;;;14.72;79.98;99563.94;5104036;28;20044;-94
2022/11/01 09:59:31;;;;;;;19.38;11.57;;;;;;;14.93;79.88;99582.00;5104481;28;20044;-93
2022/11/01 10:02:14;;;;;;;22.50;11.50;;;;;;;15.06;79.21;99589.66;5104285;28;20048;-95
2022/11/01 10:05:04;;;;;;;23.10;12.02;;;;;;;15.03;78.25;99573.66;5102981;28;20048;-95
2022/11/01 10:07:42;;;;;;;18.80;11.07;;;;;;;15.09;78.84;99565.44;5101919;28;20096;-93
2022/11/01 10:10:24;;;;;;;20.92;11.35;;;;;;;15.07;77.61;99546.75;5103281;28;20079;-94
2022/11/01 10:13:05;;;;;;;22.50;10.45;;;;;;;14.85;78.23;99546.53;5103964;28;20051;-94
2022/11/01 10:15:44;;;;;;;18.05;10.68;;;;;;;15.00;79.13;99548.72;5105071;28;20494;-95
2022/11/01 10:18:24;;;;;;;17.75;9.75;;;;;;;15.03;77.23;99546.88;5104287;28;20048;-94
2022/11/01 10:21:02;;;;;;;22.08;10.35;;;;;;;15.05;76.85;99566.44;5104024;28;20093;-95
2022/11/01 10:23:39;;;;;;;18.55;9.70;;;;;;;15.11;78.12;99542.16;5106333;28;20063;-94
2022/11/01 10:26:07;;;;;;;19.02;10.27;;;;;;;15.34;77.68;99558.31;5106327;28;20210;-94
2022/11/01 10:28:44;;;;;;;21.08;9.80;;;;;;;15.33;77.22;99528.91;5104833;28;20048;-95
2022/11/01 10:31:15;;;;;;;17.33;9.00;;;;;;;15.50;76.31;99549.75;5104438;28;20066;-94
2022/11/01 10:33:50;;;;;;;17.30;9.55;;;;;;;15.40;75.08;99525.97;5105544;28;20040;-95
2022/11/01 10:36:20;;;;;;;15.98;9.23;;;;;;;15.44;75.25;99531.22;5106405;28;20048;-95
2022/11/01 10:38:49;;;;;;;14.93;9.32;;;;;;;15.57;72.82;99548.59;5105898;28;20153;-95
2022/11/01 10:41:22;;;;;;;15.18;8.15;;;;;;;15.53;73.74;99528.22;5103855;28;20036;-95
2022/11/01 10:43:53;;;;;;;20.00;8.27;;;;;;;15.67;73.52;99535.78;5104379;28;20174;-94
2022/11/01 10:46:26;;;;;;;14.20;7.50;;;;;;;15.74;72.75;99538.22;5104670;28;20040;-95
2022/11/01 10:48:59;;;;;;;15.57;7.97;;;;;;;15.73;72.65;99525.72;5103303;28;20115;-95
2022/11/01 10:51:31;;;;;;;17.48;9.40;;;;;;;15.73;73.84;99523.06;5103235;28;20048;-94
2022/11/01 10:54:01;;;;;;;22.17;9.52;;;;;;;15.66;73.78;99513.44;5105444;28;20421;-94
2022/11/01 10:56:32;;;;;;;20.92;9.90;;;;;;;15.65;74.05;99513.50;5107815;28;20040;-94
2022/11/01 10:59:04;;;;;;;18.67;10.02;;;;;;;15.67;72.90;99507.16;5108064;28;20127;-95
2022/11/01 11:01:41;;;;;;;21.65;10.70;;;;;;;15.70;73.18;99506.16;5106655;28;20036;-93
2022/11/01 11:04:12;;;;;;;26.70;11.07;;;;;;;15.89;72.93;99528.72;5108178;28;20048;-94
2022/11/01 11:06:39;;;;;;;28.80;11.30;;;;;;;15.93;72.96;99521.44;5107869;28;20040;-93
2022/11/01 11:09:06;;;;;;;21.27;10.50;;;;;;;15.89;72.27;99501.03;5107548;28;20036;-94
2022/11/01 11:11:36;;;;;;;19.35;10.10;;;;;;;16.13;70.59;99537.66;5106833;28;20083;-94
2022/11/01 11:14:06;;;;;;;25.20;11.38;;;;;;;16.18;70.38;99524.09;5107849;28;20036;-95
2022/11/01 11:16:38;;;;;;;18.85;10.15;;;;;;;16.17;70.64;99512.47;5105024;28;20044;-96
2022/11/01 11:19:18;;;;;;;17.23;9.13;;;;;;;16.29;68.90;99495.03;5106941;28;20099;-95
2022/11/01 11:21:47;;;;;;;20.90;9.40;;;;;;;16.43;68.92;99499.84;5107256;28;20074;-96
2022/11/01 11:24:19;;;;;;;17.70;9.18;;;;;;;16.52;68.63;99502.16;5105197;28;20044;-94
2022/11/01 11:26:48;;;;;;;16.17;7.35;;;;;;;16.43;68.33;99483.75;5086082;28;20180;-95
2022/11/01 11:29:32;;;;;;;17.67;8.88;;;;;;;16.51;68.29;99475.41;5085224;28;20037;-94
2022/11/01 11:32:00;;;;;;;13.88;7.47;;;;;;;16.65;67.30;99470.34;5082576;28;20044;-95